createdAt,value
2022-09-12T00:04:49.695Z,15.70
2022-09-12T00:09:53.669Z,15.70
2022-09-12T00:14:56.345Z,15.50
2022-09-12T00:19:59.447Z,15.50
2022-09-12T00:25:03.684Z,15.50
2022-09-12T00:30:07.455Z,15.40
2022-09-12T00:35:10.156Z,15.40
2022-09-12T00:40:14.208Z,15.40
2022-09-12T00:45:24.098Z,15.40
2022-09-12T00:50:27.277Z,15.40
2022-09-12T00:55:35.268Z,15.40
2022-09-12T01:00:38.394Z,15.30
2022-09-12T01:05:44.234Z,15.20
2022-09-12T01:10:48.992Z,15.20
2022-09-12T01:15:52.636Z,15.10
2022-09-12T01:21:08.852Z,14.90
2022-09-12T01:26:42.516Z,14.70
2022-09-12T01:31:56.015Z,14.50
2022-09-12T01:37:07.802Z,14.30
2022-09-12T01:42:18.010Z,14.10
2022-09-12T01:47:28.658Z,14.10
2022-09-12T01:52:38.218Z,14.20
2022-09-12T01:57:45.673Z,14.30
2022-09-12T02:02:57.917Z,14.30
2022-09-12T02:08:06.698Z,14.30
2022-09-12T02:13:14.080Z,14.30
2022-09-12T02:18:21.109Z,14.30
2022-09-12T02:23:27.345Z,14.20
2022-09-12T02:28:36.118Z,14.20
2022-09-12T02:33:46.579Z,14.20
2022-09-12T02:38:49.696Z,14.00
2022-09-12T02:43:53.783Z,14.00
2022-09-12T02:48:58.733Z,14.00
2022-09-12T02:54:03.029Z,14.00
2022-09-12T02:59:08.872Z,13.90
2022-09-12T03:04:36.231Z,13.80
2022-09-12T03:09:45.172Z,13.80
2022-09-12T03:15:01.958Z,13.80
2022-09-12T03:20:12.503Z,13.90
2022-09-12T03:25:19.412Z,14.00
2022-09-12T03:30:22.291Z,14.10
2022-09-12T03:35:26.393Z,14.20
2022-09-12T03:40:29.037Z,14.10
2022-09-12T03:45:31.730Z,14.20
2022-09-12T03:50:35.767Z,14.30
2022-09-12T03:55:40.240Z,14.40
2022-09-12T04:00:44.288Z,14.50
2022-09-12T04:05:48.514Z,14.40
2022-09-12T04:10:51.127Z,14.40
2022-09-12T04:15:58.172Z,14.50
2022-09-12T04:21:05.653Z,14.50
2022-09-12T04:26:08.645Z,14.60
2022-09-12T04:31:15.514Z,14.60
2022-09-12T04:36:19.808Z,14.70
2022-09-12T04:41:24.015Z,14.70
2022-09-12T04:46:27.575Z,14.60
2022-09-12T04:51:33.748Z,14.60
2022-09-12T04:56:39.196Z,14.60
2022-09-12T05:01:42.055Z,14.60
2022-09-12T05:06:47.343Z,14.60
2022-09-12T05:12:05.859Z,14.60
2022-09-12T05:17:09.079Z,14.80
2022-09-12T05:22:13.149Z,14.90
2022-09-12T05:27:15.852Z,15.00
2022-09-12T05:32:18.617Z,15.10
2022-09-12T05:37:23.219Z,15.20
2022-09-12T05:42:25.977Z,15.30
2022-09-12T05:47:28.726Z,15.50
2022-09-12T05:52:33.199Z,15.70
2022-09-12T05:57:36.375Z,15.90
2022-09-12T06:02:39.082Z,16.10
2022-09-12T06:07:43.086Z,16.30
2022-09-12T06:12:45.776Z,16.40
2022-09-12T06:17:51.465Z,16.60
2022-09-12T06:22:55.725Z,16.80
2022-09-12T06:27:58.346Z,17.00
2022-09-12T06:33:00.984Z,17.20
2022-09-12T06:38:05.058Z,17.50
2022-09-12T06:43:07.707Z,17.70
2022-09-12T06:48:10.383Z,17.70
2022-09-12T06:53:14.783Z,18.10
2022-09-12T06:58:17.483Z,18.40
2022-09-12T07:03:20.562Z,18.80
2022-09-12T07:08:24.916Z,18.70
2022-09-12T07:13:27.865Z,18.80
2022-09-12T07:18:30.978Z,19.00
2022-09-12T07:23:35.299Z,18.90
2022-09-12T07:28:38.181Z,18.90
2022-09-12T07:33:41.878Z,19.00
2022-09-12T07:38:47.472Z,19.00
2022-09-12T07:43:53.162Z,19.50
2022-09-12T07:48:58.243Z,20.00
2022-09-12T07:54:02.671Z,20.40
2022-09-12T07:59:05.295Z,20.70
2022-09-12T08:04:08.400Z,21.30
2022-09-12T08:09:15.239Z,21.30
2022-09-12T08:14:18.243Z,21.50
2022-09-12T08:19:22.667Z,21.90
2022-09-12T08:24:26.813Z,22.50
2022-09-12T08:29:30.520Z,22.60
2022-09-12T08:34:33.426Z,21.70
2022-09-12T08:39:37.495Z,21.20
2022-09-12T08:44:57.947Z,21.90
2022-09-12T08:50:07.610Z,22.70
2022-09-12T08:55:31.036Z,26.40
2022-09-12T09:00:44.546Z,31.30
2022-09-12T09:05:52.154Z,30.90
2022-09-12T09:11:05.633Z,30.60
2022-09-12T09:16:16.176Z,31.90
2022-09-12T09:21:25.161Z,32.00
2022-09-12T09:26:37.622Z,36.20
2022-09-12T09:31:41.284Z,34.20
2022-09-12T09:36:50.743Z,30.00
2022-09-12T09:42:10.900Z,29.80
2022-09-12T09:47:13.703Z,29.80
2022-09-12T09:52:21.726Z,31.00
2022-09-12T09:57:44.570Z,36.50
2022-09-12T10:03:01.275Z,40.50
2022-09-12T10:08:05.688Z,43.70
2022-09-12T10:13:23.842Z,46.80
2022-09-12T10:18:39.359Z,41.60
2022-09-12T10:23:43.099Z,36.50
2022-09-12T10:28:51.943Z,32.20
2022-09-12T10:33:55.594Z,30.50
2022-09-12T10:39:01.109Z,30.00
2022-09-12T10:44:10.737Z,30.90
2022-09-12T10:49:21.069Z,30.00
2022-09-12T10:54:26.744Z,28.90
2022-09-12T10:59:42.409Z,28.30
2022-09-12T11:04:59.668Z,28.30
2022-09-12T11:10:17.108Z,28.20
2022-09-12T11:15:38.467Z,31.60
2022-09-12T11:20:57.088Z,40.50
2022-09-12T11:26:10.156Z,43.30
2022-09-12T11:31:28.856Z,44.40
2022-09-12T11:36:39.048Z,46.20
2022-09-12T11:41:44.061Z,45.10
2022-09-12T11:46:51.701Z,45.60
2022-09-12T11:51:58.831Z,43.70
2022-09-12T11:57:08.870Z,43.00
2022-09-12T12:02:18.525Z,41.90
2022-09-12T12:07:21.390Z,39.50
2022-09-12T12:12:27.349Z,35.80
2022-09-12T12:17:31.602Z,32.90
2022-09-12T12:22:34.499Z,33.00
2022-09-12T12:27:51.834Z,37.50
2022-09-12T12:33:00.671Z,37.00
2022-09-12T12:38:04.960Z,35.60
2022-09-12T12:43:32.469Z,34.60
2022-09-12T12:49:02.597Z,35.40
2022-09-12T12:54:12.989Z,40.70
2022-09-12T12:59:20.248Z,41.00
2022-09-12T13:04:28.572Z,42.80
2022-09-12T13:09:35.195Z,40.00
2022-09-12T13:14:54.913Z,35.30
2022-09-12T13:20:27.196Z,37.00
2022-09-12T13:25:32.654Z,40.50
2022-09-12T13:30:38.198Z,40.70
2022-09-12T13:35:57.892Z,36.30
2022-09-12T13:41:20.184Z,33.40
2022-09-12T13:46:30.201Z,31.70
2022-09-12T13:51:34.866Z,34.10
2022-09-12T13:56:48.621Z,35.20
2022-09-12T14:01:51.347Z,35.20
2022-09-12T14:06:56.537Z,34.60
2022-09-12T14:11:59.916Z,35.00
2022-09-12T14:17:03.125Z,34.60
2022-09-12T14:22:17.045Z,34.40
2022-09-12T14:27:23.253Z,33.20
2022-09-12T14:32:26.214Z,31.60
2022-09-12T14:37:30.259Z,30.50
2022-09-12T14:42:33.666Z,29.40
2022-09-12T14:47:41.018Z,28.80
2022-09-12T14:52:45.204Z,28.40
2022-09-12T14:57:50.044Z,27.90
2022-09-12T15:02:54.414Z,27.60
2022-09-12T15:08:02.231Z,27.70
2022-09-12T15:13:18.322Z,27.80
2022-09-12T15:18:22.000Z,27.50
2022-09-12T15:23:33.673Z,27.20
2022-09-12T15:28:36.324Z,26.80
2022-09-12T15:33:39.160Z,26.40
2022-09-12T15:38:43.394Z,26.20
2022-09-12T15:43:47.289Z,25.90
2022-09-12T15:48:50.232Z,25.50
2022-09-12T15:53:54.491Z,25.10
2022-09-12T15:58:59.622Z,24.70
2022-09-12T16:04:04.111Z,24.30
2022-09-12T16:09:16.560Z,23.90
2022-09-12T16:14:20.571Z,23.50
2022-09-12T16:19:23.618Z,23.20
2022-09-12T16:24:27.711Z,22.80
2022-09-12T16:29:30.439Z,22.50
2022-09-12T16:34:33.177Z,22.20
2022-09-12T16:39:37.357Z,21.90
2022-09-12T16:44:40.124Z,21.50
2022-09-12T16:49:42.999Z,21.30
2022-09-12T16:54:47.056Z,21.00
2022-09-12T16:59:49.920Z,20.90
2022-09-12T17:04:52.577Z,20.70
2022-09-12T17:09:57.012Z,20.50
2022-09-12T17:15:00.006Z,20.40
2022-09-12T17:20:02.792Z,20.20
2022-09-12T17:25:07.527Z,20.00
2022-09-12T17:30:11.160Z,20.00
2022-09-12T17:35:13.825Z,19.80
2022-09-12T17:40:18.043Z,19.60
2022-09-12T17:45:21.690Z,19.30
2022-09-12T17:50:32.904Z,19.20
2022-09-12T17:55:40.678Z,19.20
2022-09-12T18:01:01.072Z,19.10
2022-09-12T18:06:03.696Z,18.90
2022-09-12T18:11:08.710Z,18.70
2022-09-12T18:16:13.558Z,18.60
2022-09-12T18:21:16.222Z,18.60
2022-09-12T18:26:20.235Z,18.50
2022-09-12T18:31:24.805Z,18.30
2022-09-12T18:36:28.319Z,18.00
2022-09-12T18:41:32.325Z,17.90
2022-09-12T18:46:36.023Z,17.60
2022-09-12T18:51:41.770Z,17.50
2022-09-12T18:56:45.860Z,17.30
2022-09-12T19:01:50.152Z,17.40
2022-09-12T19:06:52.825Z,17.30
2022-09-12T19:11:56.895Z,17.20
2022-09-12T19:17:09.416Z,17.00
2022-09-12T19:22:19.162Z,17.00
2022-09-12T20:49:17.940Z,15.20
2022-09-12T20:54:21.925Z,15.10
2022-09-12T20:59:26.968Z,14.90
2022-09-12T21:04:29.628Z,14.90
2022-09-12T21:09:33.823Z,14.90
2022-09-12T21:14:36.452Z,14.70
2022-09-12T21:19:39.146Z,14.60
2022-09-12T21:24:43.090Z,14.50
2022-09-12T21:29:47.531Z,14.40
2022-09-12T21:34:53.100Z,14.60
2022-09-12T21:39:57.495Z,14.50
2022-09-12T21:45:00.109Z,14.50
2022-09-12T21:50:02.805Z,14.50
2022-09-12T21:55:09.075Z,14.40
2022-09-12T22:00:15.016Z,14.40
2022-09-12T22:05:20.289Z,14.30
2022-09-12T22:10:25.007Z,14.30
2022-09-12T22:15:43.070Z,14.20
2022-09-12T22:20:46.000Z,14.20
2022-09-12T22:25:49.952Z,14.10
2022-09-12T22:30:54.188Z,14.00
2022-09-12T22:35:56.957Z,13.80
2022-09-12T22:41:04.654Z,13.80
2022-09-12T22:46:08.391Z,13.70
2022-09-12T22:51:11.845Z,13.80
2022-09-12T22:56:16.819Z,13.80
2022-09-12T23:01:19.813Z,13.80
2022-09-12T23:06:22.471Z,13.60
2022-09-12T23:11:27.815Z,13.60
2022-09-12T23:16:32.048Z,13.70
2022-09-12T23:21:34.699Z,13.70
2022-09-12T23:26:38.698Z,13.60
2022-09-12T23:31:41.596Z,13.70
2022-09-12T23:36:44.252Z,13.50
2022-09-12T23:41:48.197Z,13.60
2022-09-12T23:46:50.859Z,13.30
2022-09-12T23:51:53.560Z,13.20
2022-09-12T23:56:57.528Z,13.10
